createdAt,value
2022-11-07T00:00:01.112Z,100946.55
2022-11-07T00:02:29.860Z,100945.38
2022-11-07T00:04:58.449Z,100941.39
2022-11-07T00:07:26.833Z,100940.79
2022-11-07T00:09:55.348Z,100937.49
2022-11-07T00:12:23.823Z,100938.73
2022-11-07T00:14:52.357Z,100937.48
2022-11-07T00:17:21.047Z,100935.48
2022-11-07T00:19:49.536Z,100934.23
2022-11-07T00:22:18.085Z,100933.77
2022-11-07T00:24:46.859Z,100928.92
2022-11-07T00:27:15.454Z,100926.57
2022-11-07T00:29:46.450Z,100920.34
2022-11-07T00:32:14.895Z,100914.95
2022-11-07T00:34:43.741Z,100901.29
2022-11-07T00:37:12.396Z,100895.57
2022-11-07T00:39:41.029Z,100898.58
2022-11-07T00:42:09.969Z,100897.27
2022-11-07T00:44:38.833Z,100893.77
2022-11-07T00:47:07.749Z,100885.04
2022-11-07T00:49:36.262Z,100886.52
2022-11-07T00:52:05.516Z,100880.48
2022-11-07T00:54:34.373Z,100874.10
2022-11-07T00:57:03.141Z,100872.51
2022-11-07T00:59:31.619Z,100865.44
2022-11-07T01:02:00.289Z,100863.38
2022-11-07T01:04:47.533Z,100855.58
2022-11-07T01:07:18.045Z,100850.24
2022-11-07T01:09:46.519Z,100849.41
2022-11-07T01:12:15.083Z,100850.13
2022-11-07T01:14:43.836Z,100844.30
2022-11-07T01:17:14.778Z,100841.15
2022-11-07T01:19:44.485Z,100839.89
2022-11-07T01:22:13.141Z,100843.95
2022-11-07T01:24:41.607Z,100845.88
2022-11-07T01:27:11.089Z,100847.61
2022-11-07T01:29:40.045Z,100846.61
2022-11-07T01:32:08.977Z,100851.94
2022-11-07T01:34:38.893Z,100851.36
2022-11-07T01:37:07.305Z,100850.41
2022-11-07T01:39:36.031Z,100847.77
2022-11-07T01:42:07.079Z,100845.70
2022-11-07T01:44:55.446Z,100841.73
2022-11-07T01:47:27.678Z,100845.08
2022-11-07T01:49:57.453Z,100841.54
2022-11-07T01:52:30.906Z,100836.17
2022-11-07T01:55:04.105Z,100834.52
2022-11-07T01:57:37.708Z,100834.63
2022-11-07T02:00:11.364Z,100830.73
2022-11-07T02:02:41.154Z,100828.64
2022-11-07T02:05:15.073Z,100829.31
2022-11-07T02:07:45.506Z,100827.33
2022-11-07T02:10:14.227Z,100824.27
2022-11-07T02:12:43.359Z,100823.71
2022-11-07T02:15:12.505Z,100821.76
2022-11-07T02:17:41.124Z,100814.46
2022-11-07T02:20:11.921Z,100811.80
2022-11-07T02:22:45.346Z,100807.13
2022-11-07T02:25:15.374Z,100805.27
2022-11-07T02:27:44.589Z,100801.98
2022-11-07T02:30:16.659Z,100800.29
2022-11-07T02:32:49.291Z,100794.15
2022-11-07T02:35:36.254Z,100791.23
2022-11-07T02:38:09.017Z,100788.10
2022-11-07T02:40:38.133Z,100788.48
2022-11-07T02:43:10.920Z,100783.07
2022-11-07T02:45:42.262Z,100780.35
2022-11-07T02:48:11.560Z,100780.52
2022-11-07T02:50:43.238Z,100768.39
2022-11-07T02:53:14.691Z,100766.88
2022-11-07T02:55:43.454Z,100757.27
2022-11-07T02:58:12.241Z,100745.10
2022-11-07T03:00:44.690Z,100744.51
2022-11-07T03:03:17.183Z,100735.77
2022-11-07T03:05:46.314Z,100735.40
2022-11-07T03:08:17.123Z,100725.47
2022-11-07T03:10:46.902Z,100732.66
2022-11-07T03:13:16.472Z,100732.71
2022-11-07T03:15:45.794Z,100738.13
2022-11-07T03:18:14.863Z,100739.49
2022-11-07T03:20:43.702Z,100736.52
2022-11-07T03:23:12.793Z,100725.09
2022-11-07T03:25:42.191Z,100720.23
2022-11-07T03:28:10.914Z,100711.34
2022-11-07T03:30:39.633Z,100709.55
2022-11-07T03:33:09.022Z,100707.20
2022-11-07T03:35:37.813Z,100708.05
2022-11-07T03:38:06.358Z,100710.07
2022-11-07T03:40:38.718Z,100707.30
2022-11-07T03:43:08.236Z,100702.52
2022-11-07T03:45:36.943Z,100702.36
2022-11-07T03:48:06.521Z,100701.14
2022-11-07T03:50:35.418Z,100702.78
2022-11-07T03:53:04.304Z,100706.09
2022-11-07T03:55:33.091Z,100704.96
2022-11-07T03:58:01.784Z,100703.27
2022-11-07T04:00:30.231Z,100699.05
2022-11-07T04:02:59.083Z,100698.32
2022-11-07T04:05:28.642Z,100700.57
2022-11-07T04:07:57.561Z,100704.05
2022-11-07T04:10:26.064Z,100703.42
2022-11-07T04:13:13.336Z,100699.39
2022-11-07T04:16:07.761Z,100697.29
2022-11-07T04:18:36.434Z,100692.90
2022-11-07T04:21:05.076Z,100694.09
2022-11-07T04:23:34.184Z,100689.30
2022-11-07T04:26:21.640Z,100685.77
2022-11-07T04:28:51.073Z,100684.50
2022-11-07T04:31:19.932Z,100682.25
2022-11-07T04:33:48.790Z,100676.87
2022-11-07T04:36:17.514Z,100684.99
2022-11-07T04:38:46.157Z,100684.20
2022-11-07T04:41:23.192Z,100686.78
2022-11-07T04:43:52.299Z,100685.94
2022-11-07T04:46:22.799Z,100683.89
2022-11-07T04:48:52.378Z,100682.23
2022-11-07T04:51:23.944Z,100683.13
2022-11-07T04:53:52.885Z,100678.89
2022-11-07T04:56:21.373Z,100681.70
2022-11-07T04:58:49.756Z,100673.89
2022-11-07T05:01:18.308Z,100669.46
2022-11-07T05:03:46.889Z,100671.63
2022-11-07T05:06:16.789Z,100666.20
2022-11-07T05:08:45.258Z,100662.15
2022-11-07T05:11:13.870Z,100655.03
2022-11-07T05:13:42.747Z,100654.30
2022-11-07T05:16:18.971Z,100645.50
2022-11-07T05:18:47.508Z,100635.45
2022-11-07T05:21:16.379Z,100642.08
2022-11-07T05:23:44.865Z,100640.77
2022-11-07T05:26:13.755Z,100641.83
2022-11-07T05:28:42.426Z,100641.79
2022-11-07T05:31:18.342Z,100644.19
2022-11-07T05:33:50.441Z,100640.09
2022-11-07T05:36:42.315Z,100646.50
2022-11-07T05:39:11.996Z,100642.52
2022-11-07T05:41:40.883Z,100641.33
2022-11-07T05:44:12.003Z,100641.50
2022-11-07T05:46:43.629Z,100646.12
2022-11-07T05:49:16.506Z,100642.95
2022-11-07T05:51:46.174Z,100641.78
2022-11-07T05:54:16.641Z,100640.73
2022-11-07T05:56:48.629Z,100638.63
2022-11-07T05:59:22.205Z,100637.07
2022-11-07T06:01:57.378Z,100633.38
2022-11-07T06:04:27.581Z,100635.34
2022-11-07T06:06:56.132Z,100636.71
2022-11-07T06:09:24.863Z,100641.85
2022-11-07T06:11:54.413Z,100646.42
2022-11-07T06:14:23.027Z,100640.70
2022-11-07T06:16:51.505Z,100643.94
2022-11-07T06:19:20.069Z,100644.64
2022-11-07T06:21:49.660Z,100648.58
2022-11-07T06:24:20.173Z,100652.48
2022-11-07T06:26:49.434Z,100649.33
2022-11-07T06:29:20.881Z,100656.13
2022-11-07T06:31:51.853Z,100659.18
2022-11-07T06:34:20.822Z,100663.79
2022-11-07T06:37:01.651Z,100665.60
2022-11-07T06:39:32.357Z,100662.98
2022-11-07T06:42:01.305Z,100665.05
2022-11-07T06:44:29.911Z,100667.88
2022-11-07T06:46:59.129Z,100664.73
2022-11-07T06:49:28.013Z,100662.27
2022-11-07T06:51:57.191Z,100670.49
2022-11-07T06:54:26.252Z,100668.52
2022-11-07T06:56:57.931Z,100655.13
2022-11-07T06:59:28.591Z,100652.29
2022-11-07T07:01:57.541Z,100651.21
2022-11-07T07:04:27.705Z,100650.20
2022-11-07T07:07:00.509Z,100648.98
2022-11-07T07:09:37.171Z,100649.98
2022-11-07T07:12:16.290Z,100646.45
2022-11-07T07:14:46.404Z,100650.84
2022-11-07T07:17:15.977Z,100654.46
2022-11-07T07:19:44.820Z,100655.20
2022-11-07T07:22:13.617Z,100654.21
2022-11-07T07:24:42.287Z,100652.83
2022-11-07T07:27:11.984Z,100652.64
2022-11-07T07:29:41.510Z,100641.71
2022-11-07T07:32:10.185Z,100640.45
2022-11-07T07:34:39.479Z,100643.73
2022-11-07T07:37:11.770Z,100639.57
2022-11-07T07:39:43.013Z,100639.75
2022-11-07T07:42:15.415Z,100641.95
2022-11-07T07:44:44.976Z,100636.83
2022-11-07T07:47:19.290Z,100635.40
2022-11-07T07:49:51.075Z,100637.92
2022-11-07T07:52:26.346Z,100636.98
2022-11-07T07:54:56.483Z,100641.36
2022-11-07T07:57:28.576Z,100641.02
2022-11-07T08:00:03.721Z,100636.31
2022-11-07T08:02:35.500Z,100638.33
2022-11-07T08:05:08.959Z,100634.76
2022-11-07T08:07:45.678Z,100632.80
2022-11-07T08:13:10.669Z,100632.23
2022-11-07T08:15:39.381Z,100632.34
2022-11-07T08:18:08.048Z,100627.57
2022-11-07T08:20:38.366Z,100630.48
2022-11-07T08:23:16.110Z,100628.04
2022-11-07T08:25:51.606Z,100630.58
2022-11-07T08:28:21.867Z,100630.66
2022-11-07T08:30:57.234Z,100627.06
2022-11-07T08:33:26.793Z,100626.96
2022-11-07T08:35:57.321Z,100633.01
2022-11-07T08:38:25.892Z,100632.20
2022-11-07T08:40:59.427Z,100625.66
2022-11-07T08:43:28.834Z,100627.42
2022-11-07T08:45:57.833Z,100628.17
2022-11-07T08:48:26.761Z,100622.98
2022-11-07T08:50:58.760Z,100618.45
2022-11-07T08:53:30.117Z,100620.36
2022-11-07T08:56:03.150Z,100620.16
2022-11-07T08:58:32.173Z,100621.57
2022-11-07T09:01:01.194Z,100621.45
2022-11-07T09:03:44.697Z,100615.39
2022-11-07T09:06:18.052Z,100616.88
2022-11-07T09:08:49.894Z,100621.36
2022-11-07T09:11:21.529Z,100617.27
2022-11-07T09:13:57.007Z,100615.38
2022-11-07T09:16:29.937Z,100609.86
2022-11-07T09:18:58.770Z,100607.71
2022-11-07T09:21:27.469Z,100600.54
2022-11-07T09:23:58.714Z,100600.42
2022-11-07T09:26:28.075Z,100597.21
2022-11-07T09:29:08.999Z,100594.98
2022-11-07T09:31:37.903Z,100596.55
2022-11-07T09:34:09.643Z,100597.73
2022-11-07T09:36:38.223Z,100594.20
2022-11-07T09:39:06.822Z,100596.83
2022-11-07T09:41:57.084Z,100594.50
2022-11-07T09:44:55.380Z,100590.30
2022-11-07T09:47:29.289Z,100587.03
2022-11-07T09:50:05.642Z,100586.85
2022-11-07T09:52:49.401Z,100584.57
2022-11-07T09:55:26.393Z,100591.39
2022-11-07T09:58:49.368Z,100586.33
2022-11-07T10:01:37.273Z,100584.02
2022-11-07T10:04:24.688Z,100580.93
2022-11-07T10:07:09.791Z,100571.42
2022-11-07T10:09:50.262Z,100570.23
2022-11-07T10:12:29.563Z,100571.88
2022-11-07T10:15:04.555Z,100563.27
2022-11-07T10:17:42.394Z,100556.96
2022-11-07T10:20:25.188Z,100558.65
2022-11-07T10:23:09.363Z,100556.88
2022-11-07T10:25:52.551Z,100555.47
2022-11-07T10:28:34.621Z,100553.27
2022-11-07T10:34:36.248Z,100553.56
2022-11-07T10:37:11.174Z,100546.52
2022-11-07T10:39:55.876Z,100544.58
2022-11-07T10:42:29.811Z,100537.51
2022-11-07T10:45:01.644Z,100537.79
2022-11-07T10:47:32.838Z,100536.55
2022-11-07T10:50:19.131Z,100540.36
2022-11-07T10:53:00.323Z,100538.25
2022-11-07T10:55:45.361Z,100542.66
2022-11-07T10:58:20.041Z,100539.48
2022-11-07T11:01:00.034Z,100538.48
2022-11-07T11:03:53.347Z,100534.45
2022-11-07T11:06:29.620Z,100531.47
2022-11-07T11:09:01.400Z,100532.38
2022-11-07T11:11:47.980Z,100533.66
2022-11-07T11:14:20.024Z,100533.15
2022-11-07T11:16:52.334Z,100536.07
2022-11-07T11:19:24.108Z,100537.97
2022-11-07T11:21:54.573Z,100531.67
2022-11-07T11:24:40.790Z,100535.64
2022-11-07T11:27:15.740Z,100539.56
2022-11-07T11:29:50.889Z,100534.26
2022-11-07T11:32:26.867Z,100537.62
2022-11-07T11:35:08.080Z,100537.86
2022-11-07T11:37:41.026Z,100541.14
2022-11-07T11:40:17.267Z,100542.16
2022-11-07T11:42:54.967Z,100546.86
2022-11-07T11:45:35.120Z,100544.07
2022-11-07T11:48:07.473Z,100544.80
2022-11-07T11:50:58.197Z,100549.69
2022-11-07T11:53:47.107Z,100552.39
2022-11-07T11:56:29.763Z,100550.08
2022-11-07T11:59:16.348Z,100550.23
2022-11-07T12:01:58.277Z,100554.30
2022-11-07T12:04:53.508Z,100552.95
2022-11-07T12:07:39.311Z,100552.67
2022-11-07T12:10:15.031Z,100550.80
2022-11-07T12:12:56.675Z,100547.88
2022-11-07T12:15:37.976Z,100549.23
2022-11-07T12:18:19.075Z,100546.88
2022-11-07T12:20:57.393Z,100558.28
2022-11-07T12:23:37.095Z,100558.92
2022-11-07T12:26:23.225Z,100554.92
2022-11-07T12:29:04.360Z,100561.08
2022-11-07T12:31:51.905Z,100562.67
2022-11-07T12:34:33.375Z,100558.83
2022-11-07T12:37:23.397Z,100561.94
2022-11-07T12:40:18.490Z,100565.52
2022-11-07T12:43:00.335Z,100557.66
2022-11-07T12:45:42.302Z,100559.13
2022-11-07T12:48:45.846Z,100560.55
2022-11-07T12:51:25.484Z,100564.22
2022-11-07T12:54:03.763Z,100562.66
2022-11-07T12:56:37.097Z,100562.67
2022-11-07T12:59:12.527Z,100561.37
2022-11-07T13:01:53.642Z,100560.40
2022-11-07T13:04:32.918Z,100561.34
2022-11-07T13:07:20.726Z,100559.55
2022-11-07T13:10:06.946Z,100554.77
2022-11-07T13:12:41.000Z,100557.62
2022-11-07T13:15:11.955Z,100558.12
2022-11-07T13:17:43.432Z,100562.47
2022-11-07T13:20:28.568Z,100560.89
2022-11-07T13:22:58.630Z,100565.16
2022-11-07T13:25:29.996Z,100568.95
2022-11-07T13:28:05.174Z,100571.02
2022-11-07T13:30:37.422Z,100574.25
2022-11-07T13:33:24.095Z,100582.33
2022-11-07T13:35:56.901Z,100586.02
2022-11-07T13:38:30.574Z,100586.05
2022-11-07T13:41:02.973Z,100586.35
2022-11-07T13:43:40.098Z,100591.39
2022-11-07T13:46:16.810Z,100595.10
2022-11-07T13:48:59.668Z,100599.42
2022-11-07T13:51:49.455Z,100598.02
2022-11-07T13:54:27.790Z,100598.14
2022-11-07T13:57:02.103Z,100596.41
2022-11-07T13:59:40.208Z,100593.89
2022-11-07T14:02:22.406Z,100590.01
2022-11-07T14:05:17.186Z,100591.02
2022-11-07T14:07:51.145Z,100594.25
2022-11-07T14:10:24.940Z,100594.43
2022-11-07T14:12:58.052Z,100593.61
2022-11-07T14:15:26.658Z,100600.58
2022-11-07T14:17:56.020Z,100597.42
2022-11-07T14:20:25.150Z,100601.02
2022-11-07T14:22:56.480Z,100602.84
2022-11-07T14:25:40.358Z,100598.10
2022-11-07T14:28:17.472Z,100606.80
2022-11-07T14:30:50.380Z,100611.08
2022-11-07T14:33:21.468Z,100614.59
2022-11-07T14:35:52.318Z,100611.89
2022-11-07T14:38:24.725Z,100611.59
2022-11-07T14:40:56.052Z,100616.48
2022-11-07T14:43:28.547Z,100615.79
2022-11-07T14:46:17.868Z,100620.70
2022-11-07T14:49:20.947Z,100620.48
2022-11-07T14:51:52.170Z,100620.15
2022-11-07T14:54:42.195Z,100630.52
2022-11-07T14:57:12.438Z,100630.76
2022-11-07T14:59:41.933Z,100629.26
2022-11-07T15:02:23.978Z,100633.75
2022-11-07T15:04:55.550Z,100636.35
2022-11-07T15:07:30.230Z,100634.83
2022-11-07T15:10:11.484Z,100636.27
2022-11-07T15:12:50.644Z,100637.16
2022-11-07T15:15:21.562Z,100637.01
2022-11-07T15:17:52.979Z,100634.16
2022-11-07T15:20:31.943Z,100635.74
2022-11-07T15:23:04.185Z,100636.41
2022-11-07T15:25:37.671Z,100637.40
2022-11-07T15:28:27.343Z,100637.73
2022-11-07T15:30:58.250Z,100641.58
2022-11-07T15:33:31.743Z,100642.11
2022-11-07T15:36:08.958Z,100645.83
2022-11-07T15:38:37.727Z,100645.02
2022-11-07T15:41:08.020Z,100646.94
2022-11-07T15:43:38.701Z,100645.86
2022-11-07T15:46:22.494Z,100647.60
2022-11-07T15:49:22.716Z,100653.02
2022-11-07T15:52:03.810Z,100649.13
2022-11-07T15:54:35.207Z,100652.27
2022-11-07T15:57:07.409Z,100652.41
2022-11-07T15:59:38.387Z,100652.83
2022-11-07T16:02:16.145Z,100653.35
2022-11-07T16:04:48.975Z,100660.42
2022-11-07T16:07:19.936Z,100664.55
2022-11-07T16:09:50.879Z,100663.88
2022-11-07T16:15:24.065Z,100664.66
2022-11-07T16:18:09.892Z,100665.70
2022-11-07T16:20:40.529Z,100666.65
2022-11-07T16:23:10.480Z,100670.41
2022-11-07T16:25:40.644Z,100669.92
2022-11-07T16:28:24.863Z,100673.39
2022-11-07T16:30:54.220Z,100677.80
2022-11-07T16:33:23.789Z,100685.14
2022-11-07T16:35:54.382Z,100686.15
2022-11-07T16:38:24.065Z,100689.37
2022-11-07T16:40:55.249Z,100686.54
2022-11-07T16:43:24.102Z,100691.59
2022-11-07T16:46:03.198Z,100689.50
2022-11-07T16:48:36.737Z,100692.68
2022-11-07T16:51:06.718Z,100693.66
2022-11-07T16:53:40.565Z,100691.34
2022-11-07T16:56:24.677Z,100693.30
2022-11-07T16:58:54.559Z,100694.23
2022-11-07T17:01:28.686Z,100700.16
2022-11-07T17:04:05.634Z,100698.13
2022-11-07T17:06:49.374Z,100703.90
2022-11-07T17:09:33.861Z,100705.22
2022-11-07T17:12:12.319Z,100708.75
2022-11-07T17:14:54.989Z,100709.08
2022-11-07T17:17:38.567Z,100714.48
2022-11-07T17:20:49.941Z,100714.52
2022-11-07T17:23:33.767Z,100717.73
2022-11-07T17:26:10.050Z,100719.11
2022-11-07T17:28:54.302Z,100719.58
2022-11-07T17:31:38.373Z,100714.75
2022-11-07T17:34:18.371Z,100714.40
2022-11-07T17:36:56.249Z,100707.33
2022-11-07T17:39:29.543Z,100713.86
2022-11-07T17:42:09.235Z,100716.63
2022-11-07T17:44:39.954Z,100720.15
2022-11-07T17:47:28.007Z,100719.94
2022-11-07T17:49:57.570Z,100721.35
2022-11-07T17:52:26.511Z,100721.59
2022-11-07T17:54:56.939Z,100722.38
2022-11-07T17:57:28.996Z,100720.83
2022-11-07T18:00:00.596Z,100716.11
2022-11-07T18:02:29.796Z,100712.64
2022-11-07T18:05:01.249Z,100709.87
2022-11-07T18:07:30.397Z,100711.17
2022-11-07T18:10:01.392Z,100707.98
2022-11-07T18:12:29.929Z,100704.13
2022-11-07T18:14:58.466Z,100699.53
2022-11-07T18:17:30.523Z,100699.27
2022-11-07T18:20:03.445Z,100707.09
2022-11-07T18:22:34.321Z,100706.70
2022-11-07T18:25:21.134Z,100708.05
2022-11-07T18:27:50.196Z,100713.23
2022-11-07T18:30:19.250Z,100719.08
2022-11-07T18:32:47.729Z,100722.30
2022-11-07T18:35:16.554Z,100723.48
2022-11-07T18:37:46.811Z,100722.77
2022-11-07T18:40:18.038Z,100728.09
2022-11-07T18:42:46.719Z,100729.87
2022-11-07T18:45:15.251Z,100733.65
2022-11-07T18:47:44.425Z,100731.52
2022-11-07T18:50:13.264Z,100730.61
2022-11-07T18:52:41.839Z,100737.10
2022-11-07T18:55:10.881Z,100736.77
2022-11-07T18:57:42.476Z,100731.33
2022-11-07T19:00:14.724Z,100735.13
2022-11-07T19:02:44.245Z,100741.82
2022-11-07T19:05:13.184Z,100744.86
2022-11-07T19:07:44.546Z,100749.61
2022-11-07T19:10:15.476Z,100754.82
2022-11-07T19:12:44.979Z,100752.59
2022-11-07T19:15:14.563Z,100753.25
2022-11-07T19:17:43.038Z,100752.25
2022-11-07T19:20:12.589Z,100748.55
2022-11-07T19:22:41.872Z,100748.52
2022-11-07T19:25:18.204Z,100748.91
2022-11-07T19:27:48.560Z,100754.97
2022-11-07T19:30:19.769Z,100759.69
2022-11-07T19:32:50.842Z,100760.85
2022-11-07T19:35:24.583Z,100764.35
2022-11-07T19:37:53.353Z,100766.08
2022-11-07T19:40:23.566Z,100763.64
2022-11-07T19:42:52.603Z,100763.67
2022-11-07T19:45:23.483Z,100767.33
2022-11-07T19:47:52.383Z,100764.92
2022-11-07T19:50:22.181Z,100764.04
2022-11-07T19:52:51.078Z,100766.22
2022-11-07T19:55:21.464Z,100764.81
2022-11-07T19:57:51.149Z,100765.77
2022-11-07T20:00:20.255Z,100768.61
2022-11-07T20:02:49.238Z,100767.30
2022-11-07T20:05:23.437Z,100765.77
2022-11-07T20:07:55.306Z,100766.13
2022-11-07T20:10:25.840Z,100763.73
2022-11-07T20:12:55.398Z,100765.94
2022-11-07T20:15:24.031Z,100769.93
2022-11-07T20:17:52.769Z,100770.95
2022-11-07T20:20:21.467Z,100766.05
2022-11-07T20:22:50.045Z,100767.37
2022-11-07T20:25:18.907Z,100766.69
2022-11-07T20:27:47.777Z,100771.05
2022-11-07T20:30:16.327Z,100768.83
2022-11-07T20:32:46.677Z,100766.88
2022-11-07T20:35:15.811Z,100765.79
2022-11-07T20:37:45.604Z,100765.69
2022-11-07T20:40:14.558Z,100768.15
2022-11-07T20:42:43.635Z,100769.00
2022-11-07T20:45:12.787Z,100766.59
2022-11-07T20:47:41.897Z,100768.98
2022-11-07T20:50:11.399Z,100770.09
2022-11-07T20:52:40.008Z,100771.36
2022-11-07T20:55:09.511Z,100773.30
2022-11-07T20:57:38.051Z,100772.64
2022-11-07T21:00:09.214Z,100771.40
2022-11-07T21:02:38.387Z,100767.08
2022-11-07T21:05:18.336Z,100766.08
2022-11-07T21:07:49.365Z,100767.89
2022-11-07T21:10:19.090Z,100774.96
2022-11-07T21:12:47.725Z,100776.46
2022-11-07T21:15:16.489Z,100781.44
2022-11-07T21:17:45.549Z,100781.70
2022-11-07T21:20:14.651Z,100783.52
2022-11-07T21:22:43.779Z,100781.24
2022-11-07T21:25:12.330Z,100784.30
2022-11-07T21:27:40.823Z,100783.20
2022-11-07T21:30:10.840Z,100782.95
2022-11-07T21:32:39.617Z,100781.98
2022-11-07T21:35:09.867Z,100779.67
2022-11-07T21:37:41.030Z,100778.27
2022-11-07T21:40:12.626Z,100781.71
2022-11-07T21:42:41.128Z,100783.11
2022-11-07T21:45:11.933Z,100781.02
2022-11-07T21:47:45.749Z,100777.80
2022-11-07T21:50:38.263Z,100775.92
2022-11-07T21:53:05.940Z,100774.50
2022-11-07T21:55:34.482Z,100772.52
2022-11-07T21:58:03.213Z,100775.06
2022-11-07T22:00:36.182Z,100772.52
2022-11-07T22:03:05.608Z,100772.79
2022-11-07T22:05:36.657Z,100774.98
2022-11-07T22:08:07.580Z,100778.70
2022-11-07T22:10:36.795Z,100779.48
2022-11-07T22:13:06.712Z,100773.39
2022-11-07T22:15:35.359Z,100777.95
2022-11-07T22:18:12.342Z,100777.95
2022-11-07T22:20:40.917Z,100774.09
2022-11-07T22:23:09.888Z,100776.13
2022-11-07T22:25:41.746Z,100772.75
2022-11-07T22:28:15.063Z,100770.13
2022-11-07T22:30:44.268Z,100767.92
2022-11-07T22:33:14.424Z,100766.73
2022-11-07T22:35:43.624Z,100764.90
2022-11-07T22:38:12.982Z,100765.46
2022-11-07T22:40:44.682Z,100763.58
2022-11-07T22:43:13.698Z,100766.73
2022-11-07T22:45:45.552Z,100766.15
2022-11-07T22:48:16.117Z,100765.62
2022-11-07T22:50:44.765Z,100767.98
2022-11-07T22:53:16.373Z,100768.17
2022-11-07T22:55:46.630Z,100767.45
2022-11-07T22:58:15.471Z,100767.62
2022-11-07T23:00:44.393Z,100765.57
2022-11-07T23:03:13.210Z,100765.45
2022-11-07T23:05:41.923Z,100766.79
2022-11-07T23:08:10.387Z,100769.23
2022-11-07T23:10:39.362Z,100765.77
2022-11-07T23:13:08.118Z,100766.77
2022-11-07T23:15:36.903Z,100766.59
2022-11-07T23:18:13.121Z,100768.98
2022-11-07T23:21:06.031Z,100765.57
2022-11-07T23:23:43.346Z,100765.39
2022-11-07T23:26:16.143Z,100768.88
2022-11-07T23:28:47.248Z,100768.31
2022-11-07T23:31:19.620Z,100772.80
2022-11-07T23:33:51.184Z,100777.35
2022-11-07T23:36:19.797Z,100775.45
2022-11-07T23:38:48.475Z,100775.05
2022-11-07T23:41:20.597Z,100772.36
2022-11-07T23:43:52.500Z,100775.08
2022-11-07T23:46:39.674Z,100775.95
2022-11-07T23:49:28.686Z,100777.11
2022-11-07T23:51:57.742Z,100780.02
2022-11-07T23:54:44.818Z,100778.82
2022-11-07T23:57:13.412Z,100781.38
